sensor_id;sensor_type;location;lat;lon;timestamp;temperature;humidity
18173;DHT22;9211;48.818;9.312;2022-11-20T00:01:27;6.50;99.90
18173;DHT22;9211;48.818;9.312;2022-11-20T00:03:58;6.50;99.90
18173;DHT22;9211;48.818;9.312;2022-11-20T00:06:27;6.50;99.90
18173;DHT22;9211;48.818;9.312;2022-11-20T00:08:56;6.50;99.90
18173;DHT22;9211;48.818;9.312;2022-11-20T00:11:26;6.50;99.90
18173;DHT22;9211;48.818;9.312;2022-11-20T00:13:55;6.50;99.90
18173;DHT22;9211;48.818;9.312;2022-11-20T00:16:25;6.60;99.90
18173;DHT22;9211;48.818;9.312;2022-11-20T00:18:53;6.40;99.90
18173;DHT22;9211;48.818;9.312;2022-11-20T00:21:22;6.30;99.90
18173;DHT22;9211;48.818;9.312;2022-11-20T00:23:52;6.40;99.90
18173;DHT22;9211;48.818;9.312;2022-11-20T00:26:21;6.40;99.90
18173;DHT22;9211;48.818;9.312;2022-11-20T00:28:50;6.30;99.90
18173;DHT22;9211;48.818;9.312;2022-11-20T00:31:17;6.30;99.90
18173;DHT22;9211;48.818;9.312;2022-11-20T00:33:45;6.40;99.90
18173;DHT22;9211;48.818;9.312;2022-11-20T00:36:14;6.30;99.90
18173;DHT22;9211;48.818;9.312;2022-11-20T00:38:41;6.30;99.90
18173;DHT22;9211;48.818;9.312;2022-11-20T00:41:12;6.30;99.90
18173;DHT22;9211;48.818;9.312;2022-11-20T00:43:39;6.30;99.90
18173;DHT22;9211;48.818;9.312;2022-11-20T00:46:07;6.20;99.90
18173;DHT22;9211;48.818;9.312;2022-11-20T00:48:35;6.30;99.90
18173;DHT22;9211;48.818;9.312;2022-11-20T00:51:02;6.30;99.90
18173;DHT22;9211;48.818;9.312;2022-11-20T00:53:30;6.30;99.90
18173;DHT22;9211;48.818;9.312;2022-11-20T00:55:59;6.30;99.90
18173;DHT22;9211;48.818;9.312;2022-11-20T00:58:32;6.40;99.90
18173;DHT22;9211;48.818;9.312;2022-11-20T01:01:04;6.30;99.90
18173;DHT22;9211;48.818;9.312;2022-11-20T01:03:32;6.30;99.90
18173;DHT22;9211;48.818;9.312;2022-11-20T01:06:00;6.30;99.90
18173;DHT22;9211;48.818;9.312;2022-11-20T01:08:30;6.30;99.90
18173;DHT22;9211;48.818;9.312;2022-11-20T01:11:02;6.30;99.90
18173;DHT22;9211;48.818;9.312;2022-11-20T01:13:31;6.30;99.90
18173;DHT22;9211;48.818;9.312;2022-11-20T01:16:04;6.30;99.90
18173;DHT22;9211;48.818;9.312;2022-11-20T01:18:32;6.20;99.90
18173;DHT22;9211;48.818;9.312;2022-11-20T01:21:04;6.20;99.90
18173;DHT22;9211;48.818;9.312;2022-11-20T01:23:32;6.20;99.90
18173;DHT22;9211;48.818;9.312;2022-11-20T01:26:01;6.20;99.90
18173;DHT22;9211;48.818;9.312;2022-11-20T01:28:28;6.30;99.90
18173;DHT22;9211;48.818;9.312;2022-11-20T01:30:57;6.30;99.90
18173;DHT22;9211;48.818;9.312;2022-11-20T01:33:24;6.40;99.90
18173;DHT22;9211;48.818;9.312;2022-11-20T01:35:53;6.20;99.90
18173;DHT22;9211;48.818;9.312;2022-11-20T01:38:29;6.20;99.90
18173;DHT22;9211;48.818;9.312;2022-11-20T01:40:56;6.20;99.90
18173;DHT22;9211;48.818;9.312;2022-11-20T01:43:24;6.20;99.90
18173;DHT22;9211;48.818;9.312;2022-11-20T01:46:01;6.10;99.90
18173;DHT22;9211;48.818;9.312;2022-11-20T01:48:33;6.10;99.90
18173;DHT22;9211;48.818;9.312;2022-11-20T01:51:04;6.10;99.90
18173;DHT22;9211;48.818;9.312;2022-11-20T01:53:36;6.10;99.90
18173;DHT22;9211;48.818;9.312;2022-11-20T01:56:06;6.00;99.90
18173;DHT22;9211;48.818;9.312;2022-11-20T01:58:37;6.00;99.90
18173;DHT22;9211;48.818;9.312;2022-11-20T02:01:07;6.10;99.90
18173;DHT22;9211;48.818;9.312;2022-11-20T02:03:34;6.00;99.90
18173;DHT22;9211;48.818;9.312;2022-11-20T02:06:06;6.00;99.90
18173;DHT22;9211;48.818;9.312;2022-11-20T02:08:35;6.00;99.90
18173;DHT22;9211;48.818;9.312;2022-11-20T02:11:03;5.90;99.90
18173;DHT22;9211;48.818;9.312;2022-11-20T02:13:30;5.80;99.90
18173;DHT22;9211;48.818;9.312;2022-11-20T02:16:21;5.90;99.90
18173;DHT22;9211;48.818;9.312;2022-11-20T02:18:48;5.90;99.90
18173;DHT22;9211;48.818;9.312;2022-11-20T02:21:27;5.90;99.90
18173;DHT22;9211;48.818;9.312;2022-11-20T02:24:04;5.90;99.90
18173;DHT22;9211;48.818;9.312;2022-11-20T02:26:35;5.90;99.90
18173;DHT22;9211;48.818;9.312;2022-11-20T02:29:04;5.90;99.90
18173;DHT22;9211;48.818;9.312;2022-11-20T02:31:39;5.90;99.90
18173;DHT22;9211;48.818;9.312;2022-11-20T02:34:07;5.90;99.90
18173;DHT22;9211;48.818;9.312;2022-11-20T02:36:35;6.00;99.90
18173;DHT22;9211;48.818;9.312;2022-11-20T02:39:04;5.90;99.90
18173;DHT22;9211;48.818;9.312;2022-11-20T02:41:33;6.00;99.90
18173;DHT22;9211;48.818;9.312;2022-11-20T02:44:01;6.00;99.90
18173;DHT22;9211;48.818;9.312;2022-11-20T02:46:28;6.00;99.90
18173;DHT22;9211;48.818;9.312;2022-11-20T02:48:55;6.00;99.90
18173;DHT22;9211;48.818;9.312;2022-11-20T02:51:22;6.00;99.90
18173;DHT22;9211;48.818;9.312;2022-11-20T02:53:50;6.10;99.90
18173;DHT22;9211;48.818;9.312;2022-11-20T02:56:18;6.20;99.90
18173;DHT22;9211;48.818;9.312;2022-11-20T02:58:45;6.10;99.90
18173;DHT22;9211;48.818;9.312;2022-11-20T03:01:12;6.20;99.90
18173;DHT22;9211;48.818;9.312;2022-11-20T03:03:40;6.20;99.90
18173;DHT22;9211;48.818;9.312;2022-11-20T03:06:07;6.30;99.90
18173;DHT22;9211;48.818;9.312;2022-11-20T03:08:34;6.30;99.90
18173;DHT22;9211;48.818;9.312;2022-11-20T03:11:03;6.40;99.90
18173;DHT22;9211;48.818;9.312;2022-11-20T03:13:31;6.40;99.90
18173;DHT22;9211;48.818;9.312;2022-11-20T03:16:04;6.40;99.90
18173;DHT22;9211;48.818;9.312;2022-11-20T03:18:31;6.40;99.90
18173;DHT22;9211;48.818;9.312;2022-11-20T03:20:58;6.50;99.90
18173;DHT22;9211;48.818;9.312;2022-11-20T03:23:25;6.50;99.90
18173;DHT22;9211;48.818;9.312;2022-11-20T03:25:52;6.60;99.90
18173;DHT22;9211;48.818;9.312;2022-11-20T03:28:19;6.60;99.90
18173;DHT22;9211;48.818;9.312;2022-11-20T03:30:48;6.60;99.90
18173;DHT22;9211;48.818;9.312;2022-11-20T03:33:15;6.70;99.90
18173;DHT22;9211;48.818;9.312;2022-11-20T03:35:42;6.70;99.90
18173;DHT22;9211;48.818;9.312;2022-11-20T03:38:09;6.80;99.90
18173;DHT22;9211;48.818;9.312;2022-11-20T03:40:35;6.80;99.90
18173;DHT22;9211;48.818;9.312;2022-11-20T03:43:02;6.80;99.90
18173;DHT22;9211;48.818;9.312;2022-11-20T03:45:29;6.80;99.90
18173;DHT22;9211;48.818;9.312;2022-11-20T03:47:58;6.80;99.90
18173;DHT22;9211;48.818;9.312;2022-11-20T03:50:25;6.80;99.90
18173;DHT22;9211;48.818;9.312;2022-11-20T03:52:52;6.80;99.90
18173;DHT22;9211;48.818;9.312;2022-11-20T03:55:19;6.70;99.90
18173;DHT22;9211;48.818;9.312;2022-11-20T03:57:46;6.70;99.90
18173;DHT22;9211;48.818;9.312;2022-11-20T04:02:40;6.80;99.90
18173;DHT22;9211;48.818;9.312;2022-11-20T04:05:09;6.80;99.90
18173;DHT22;9211;48.818;9.312;2022-11-20T04:07:36;6.80;99.90
18173;DHT22;9211;48.818;9.312;2022-11-20T04:10:03;6.80;99.90
18173;DHT22;9211;48.818;9.312;2022-11-20T04:12:32;6.80;99.90
18173;DHT22;9211;48.818;9.312;2022-11-20T04:15:00;6.80;99.90
18173;DHT22;9211;48.818;9.312;2022-11-20T04:17:27;6.70;99.90
18173;DHT22;9211;48.818;9.312;2022-11-20T04:19:53;6.70;99.90
18173;DHT22;9211;48.818;9.312;2022-11-20T04:22:22;6.80;99.90
18173;DHT22;9211;48.818;9.312;2022-11-20T04:24:49;6.70;99.90
18173;DHT22;9211;48.818;9.312;2022-11-20T04:27:16;6.60;99.90
18173;DHT22;9211;48.818;9.312;2022-11-20T04:29:43;6.80;99.90
18173;DHT22;9211;48.818;9.312;2022-11-20T04:32:10;6.80;99.90
18173;DHT22;9211;48.818;9.312;2022-11-20T04:34:37;6.80;99.90
18173;DHT22;9211;48.818;9.312;2022-11-20T04:37:04;6.80;99.90
18173;DHT22;9211;48.818;9.312;2022-11-20T04:39:32;6.80;99.90
18173;DHT22;9211;48.818;9.312;2022-11-20T04:41:59;6.80;99.90
18173;DHT22;9211;48.818;9.312;2022-11-20T04:44:43;6.80;99.90
18173;DHT22;9211;48.818;9.312;2022-11-20T04:47:10;6.80;99.90
18173;DHT22;9211;48.818;9.312;2022-11-20T04:49:37;6.80;99.90
18173;DHT22;9211;48.818;9.312;2022-11-20T04:52:04;6.80;99.90
18173;DHT22;9211;48.818;9.312;2022-11-20T04:54:32;6.80;99.90
18173;DHT22;9211;48.818;9.312;2022-11-20T04:56:59;6.80;99.90
18173;DHT22;9211;48.818;9.312;2022-11-20T04:59:26;6.80;99.90
18173;DHT22;9211;48.818;9.312;2022-11-20T05:01:53;6.80;99.90
18173;DHT22;9211;48.818;9.312;2022-11-20T05:04:20;6.80;99.90
18173;DHT22;9211;48.818;9.312;2022-11-20T05:06:47;6.90;99.90
18173;DHT22;9211;48.818;9.312;2022-11-20T05:09:14;6.90;99.90
18173;DHT22;9211;48.818;9.312;2022-11-20T05:11:42;6.80;99.90
18173;DHT22;9211;48.818;9.312;2022-11-20T05:14:09;6.90;99.90
18173;DHT22;9211;48.818;9.312;2022-11-20T05:16:36;6.90;99.90
18173;DHT22;9211;48.818;9.312;2022-11-20T05:19:03;6.90;99.90
18173;DHT22;9211;48.818;9.312;2022-11-20T05:21:30;6.90;99.90
18173;DHT22;9211;48.818;9.312;2022-11-20T05:23:58;6.90;99.90
18173;DHT22;9211;48.818;9.312;2022-11-20T05:26:25;6.90;99.90
18173;DHT22;9211;48.818;9.312;2022-11-20T05:28:53;6.90;99.90
18173;DHT22;9211;48.818;9.312;2022-11-20T05:31:22;6.90;99.90
18173;DHT22;9211;48.818;9.312;2022-11-20T05:33:49;6.90;99.90
18173;DHT22;9211;48.818;9.312;2022-11-20T05:36:16;6.90;99.90
18173;DHT22;9211;48.818;9.312;2022-11-20T05:38:44;6.90;99.90
18173;DHT22;9211;48.818;9.312;2022-11-20T05:41:12;6.90;99.90
18173;DHT22;9211;48.818;9.312;2022-11-20T05:43:40;6.90;99.90
18173;DHT22;9211;48.818;9.312;2022-11-20T05:46:11;6.90;99.90
18173;DHT22;9211;48.818;9.312;2022-11-20T05:48:39;6.90;99.90
18173;DHT22;9211;48.818;9.312;2022-11-20T05:51:08;7.00;99.90
18173;DHT22;9211;48.818;9.312;2022-11-20T05:53:36;7.00;99.90
18173;DHT22;9211;48.818;9.312;2022-11-20T05:56:05;7.00;99.90
18173;DHT22;9211;48.818;9.312;2022-11-20T05:58:33;7.00;99.90
18173;DHT22;9211;48.818;9.312;2022-11-20T06:01:05;7.00;99.90
18173;DHT22;9211;48.818;9.312;2022-11-20T06:03:34;7.00;99.90
18173;DHT22;9211;48.818;9.312;2022-11-20T06:06:02;7.00;99.90
18173;DHT22;9211;48.818;9.312;2022-11-20T06:08:29;7.00;99.90
18173;DHT22;9211;48.818;9.312;2022-11-20T06:10:56;7.00;99.90
18173;DHT22;9211;48.818;9.312;2022-11-20T06:13:24;7.00;99.90
18173;DHT22;9211;48.818;9.312;2022-11-20T06:15:51;7.00;99.90
18173;DHT22;9211;48.818;9.312;2022-11-20T06:18:19;7.10;99.90
18173;DHT22;9211;48.818;9.312;2022-11-20T06:20:47;7.10;99.90
18173;DHT22;9211;48.818;9.312;2022-11-20T06:23:15;7.10;99.90
18173;DHT22;9211;48.818;9.312;2022-11-20T06:25:42;7.10;99.90
18173;DHT22;9211;48.818;9.312;2022-11-20T06:28:09;7.10;99.90
18173;DHT22;9211;48.818;9.312;2022-11-20T06:30:36;7.10;99.90
18173;DHT22;9211;48.818;9.312;2022-11-20T06:33:03;7.10;99.90
18173;DHT22;9211;48.818;9.312;2022-11-20T06:35:30;7.10;99.90
18173;DHT22;9211;48.818;9.312;2022-11-20T06:37:59;7.10;99.90
18173;DHT22;9211;48.818;9.312;2022-11-20T06:40:25;7.10;99.90
18173;DHT22;9211;48.818;9.312;2022-11-20T06:42:53;7.10;99.90
18173;DHT22;9211;48.818;9.312;2022-11-20T06:45:20;7.10;99.90
18173;DHT22;9211;48.818;9.312;2022-11-20T06:47:47;7.00;99.90
18173;DHT22;9211;48.818;9.312;2022-11-20T06:50:14;7.00;99.90
18173;DHT22;9211;48.818;9.312;2022-11-20T06:52:41;7.00;99.90
18173;DHT22;9211;48.818;9.312;2022-11-20T06:55:10;7.00;99.90
18173;DHT22;9211;48.818;9.312;2022-11-20T06:57:37;7.00;99.90
18173;DHT22;9211;48.818;9.312;2022-11-20T07:00:05;7.00;99.90
18173;DHT22;9211;48.818;9.312;2022-11-20T07:02:32;7.10;99.90
18173;DHT22;9211;48.818;9.312;2022-11-20T07:04:59;7.10;99.90
18173;DHT22;9211;48.818;9.312;2022-11-20T07:07:26;7.10;99.90
18173;DHT22;9211;48.818;9.312;2022-11-20T07:09:53;7.10;99.90
18173;DHT22;9211;48.818;9.312;2022-11-20T07:12:21;7.00;99.90
18173;DHT22;9211;48.818;9.312;2022-11-20T07:14:48;7.00;99.90
18173;DHT22;9211;48.818;9.312;2022-11-20T07:17:15;7.00;99.90
18173;DHT22;9211;48.818;9.312;2022-11-20T07:19:42;7.10;99.90
18173;DHT22;9211;48.818;9.312;2022-11-20T07:22:09;7.10;99.90
18173;DHT22;9211;48.818;9.312;2022-11-20T07:24:36;7.10;99.90
18173;DHT22;9211;48.818;9.312;2022-11-20T07:27:04;7.10;99.90
18173;DHT22;9211;48.818;9.312;2022-11-20T07:29:32;7.10;99.90
18173;DHT22;9211;48.818;9.312;2022-11-20T07:31:59;7.10;99.90
18173;DHT22;9211;48.818;9.312;2022-11-20T07:34:26;7.10;99.90
18173;DHT22;9211;48.818;9.312;2022-11-20T07:36:53;7.20;99.90
18173;DHT22;9211;48.818;9.312;2022-11-20T07:39:20;7.20;99.90
18173;DHT22;9211;48.818;9.312;2022-11-20T07:41:47;7.20;99.90
18173;DHT22;9211;48.818;9.312;2022-11-20T07:44:14;7.20;99.90
18173;DHT22;9211;48.818;9.312;2022-11-20T07:46:43;7.20;99.90
18173;DHT22;9211;48.818;9.312;2022-11-20T07:49:09;7.20;99.90
18173;DHT22;9211;48.818;9.312;2022-11-20T07:51:37;7.30;99.90
18173;DHT22;9211;48.818;9.312;2022-11-20T07:54:04;7.30;99.90
18173;DHT22;9211;48.818;9.312;2022-11-20T07:56:31;7.40;99.90
18173;DHT22;9211;48.818;9.312;2022-11-20T07:58:58;7.40;99.90
18173;DHT22;9211;48.818;9.312;2022-11-20T08:01:25;7.40;99.90
18173;DHT22;9211;48.818;9.312;2022-11-20T08:03:53;7.40;99.90
18173;DHT22;9211;48.818;9.312;2022-11-20T08:06:20;7.50;99.90
18173;DHT22;9211;48.818;9.312;2022-11-20T08:08:47;7.40;99.90
18173;DHT22;9211;48.818;9.312;2022-11-20T08:11:14;7.50;99.90
18173;DHT22;9211;48.818;9.312;2022-11-20T08:13:58;7.50;99.90
18173;DHT22;9211;48.818;9.312;2022-11-20T08:16:43;7.50;99.90
18173;DHT22;9211;48.818;9.312;2022-11-20T08:19:12;7.50;99.90
18173;DHT22;9211;48.818;9.312;2022-11-20T08:21:39;7.50;99.90
18173;DHT22;9211;48.818;9.312;2022-11-20T08:24:06;7.50;99.90
18173;DHT22;9211;48.818;9.312;2022-11-20T08:26:34;7.50;99.90
18173;DHT22;9211;48.818;9.312;2022-11-20T08:29:01;7.60;99.90
18173;DHT22;9211;48.818;9.312;2022-11-20T08:31:28;7.60;99.90
18173;DHT22;9211;48.818;9.312;2022-11-20T08:33:55;7.60;99.90
18173;DHT22;9211;48.818;9.312;2022-11-20T08:36:24;7.60;99.90
18173;DHT22;9211;48.818;9.312;2022-11-20T08:38:52;7.70;99.90
18173;DHT22;9211;48.818;9.312;2022-11-20T08:41:20;7.70;99.90
18173;DHT22;9211;48.818;9.312;2022-11-20T08:43:55;7.80;99.90
18173;DHT22;9211;48.818;9.312;2022-11-20T08:46:23;7.80;99.90
18173;DHT22;9211;48.818;9.312;2022-11-20T08:48:50;7.80;99.90
18173;DHT22;9211;48.818;9.312;2022-11-20T08:51:19;7.80;99.90
18173;DHT22;9211;48.818;9.312;2022-11-20T08:53:47;7.90;99.90
18173;DHT22;9211;48.818;9.312;2022-11-20T08:56:15;8.00;99.90
18173;DHT22;9211;48.818;9.312;2022-11-20T08:58:42;8.00;99.90
18173;DHT22;9211;48.818;9.312;2022-11-20T09:01:09;8.00;99.90
18173;DHT22;9211;48.818;9.312;2022-11-20T09:03:36;8.10;99.90
18173;DHT22;9211;48.818;9.312;2022-11-20T09:06:05;8.20;99.90
18173;DHT22;9211;48.818;9.312;2022-11-20T09:08:33;8.20;99.90
18173;DHT22;9211;48.818;9.312;2022-11-20T09:11:03;8.20;99.90
18173;DHT22;9211;48.818;9.312;2022-11-20T09:13:31;8.10;99.90
18173;DHT22;9211;48.818;9.312;2022-11-20T09:16:00;8.20;99.90
18173;DHT22;9211;48.818;9.312;2022-11-20T09:18:28;8.20;99.90
18173;DHT22;9211;48.818;9.312;2022-11-20T09:20:58;8.20;99.90
18173;DHT22;9211;48.818;9.312;2022-11-20T09:23:25;8.10;99.90
18173;DHT22;9211;48.818;9.312;2022-11-20T09:25:53;8.20;99.90
18173;DHT22;9211;48.818;9.312;2022-11-20T09:28:26;8.20;99.90
18173;DHT22;9211;48.818;9.312;2022-11-20T09:30:53;8.20;99.90
18173;DHT22;9211;48.818;9.312;2022-11-20T09:33:20;8.10;99.90
18173;DHT22;9211;48.818;9.312;2022-11-20T09:35:47;8.10;99.90
18173;DHT22;9211;48.818;9.312;2022-11-20T09:38:14;8.20;99.90
18173;DHT22;9211;48.818;9.312;2022-11-20T09:40:47;8.10;99.90
18173;DHT22;9211;48.818;9.312;2022-11-20T09:43:18;8.20;99.90
18173;DHT22;9211;48.818;9.312;2022-11-20T09:45:57;8.20;99.90
18173;DHT22;9211;48.818;9.312;2022-11-20T09:48:36;8.20;99.90
18173;DHT22;9211;48.818;9.312;2022-11-20T09:51:15;8.20;99.90
18173;DHT22;9211;48.818;9.312;2022-11-20T09:53:56;8.10;99.90
18173;DHT22;9211;48.818;9.312;2022-11-20T09:56:28;8.20;99.90
18173;DHT22;9211;48.818;9.312;2022-11-20T09:59:02;8.20;99.90
18173;DHT22;9211;48.818;9.312;2022-11-20T10:01:34;8.20;99.90
18173;DHT22;9211;48.818;9.312;2022-11-20T10:04:03;8.20;99.90
18173;DHT22;9211;48.818;9.312;2022-11-20T10:06:33;8.20;99.90
18173;DHT22;9211;48.818;9.312;2022-11-20T10:09:06;8.20;99.90
18173;DHT22;9211;48.818;9.312;2022-11-20T10:11:42;8.30;99.90
18173;DHT22;9211;48.818;9.312;2022-11-20T10:14:23;8.30;99.90
18173;DHT22;9211;48.818;9.312;2022-11-20T10:17:02;8.30;99.90
18173;DHT22;9211;48.818;9.312;2022-11-20T10:19:47;8.20;99.90
18173;DHT22;9211;48.818;9.312;2022-11-20T10:22:26;8.20;99.90
18173;DHT22;9211;48.818;9.312;2022-11-20T10:25:02;8.20;99.90
18173;DHT22;9211;48.818;9.312;2022-11-20T10:28:06;8.20;99.90
18173;DHT22;9211;48.818;9.312;2022-11-20T10:30:37;8.20;99.90
18173;DHT22;9211;48.818;9.312;2022-11-20T10:33:13;8.10;99.90
18173;DHT22;9211;48.818;9.312;2022-11-20T10:35:42;8.20;99.90
18173;DHT22;9211;48.818;9.312;2022-11-20T10:38:15;8.20;99.90
18173;DHT22;9211;48.818;9.312;2022-11-20T10:40:46;8.20;99.90
18173;DHT22;9211;48.818;9.312;2022-11-20T10:43:17;8.10;99.90
18173;DHT22;9211;48.818;9.312;2022-11-20T10:45:55;8.10;99.90
18173;DHT22;9211;48.818;9.312;2022-11-20T10:48:26;8.10;99.90
18173;DHT22;9211;48.818;9.312;2022-11-20T10:51:08;8.10;99.90
18173;DHT22;9211;48.818;9.312;2022-11-20T10:53:54;8.10;99.90
18173;DHT22;9211;48.818;9.312;2022-11-20T10:56:28;8.00;99.90
18173;DHT22;9211;48.818;9.312;2022-11-20T10:59:19;8.00;99.90
18173;DHT22;9211;48.818;9.312;2022-11-20T11:01:51;8.00;99.90
18173;DHT22;9211;48.818;9.312;2022-11-20T11:04:30;8.00;99.90
18173;DHT22;9211;48.818;9.312;2022-11-20T11:07:06;8.00;99.90
18173;DHT22;9211;48.818;9.312;2022-11-20T11:09:38;8.00;99.90
18173;DHT22;9211;48.818;9.312;2022-11-20T11:12:07;8.00;99.90
18173;DHT22;9211;48.818;9.312;2022-11-20T11:14:46;8.00;99.90
18173;DHT22;9211;48.818;9.312;2022-11-20T11:17:27;8.00;99.90
18173;DHT22;9211;48.818;9.312;2022-11-20T11:20:14;8.00;99.90
18173;DHT22;9211;48.818;9.312;2022-11-20T11:22:44;8.00;99.90
18173;DHT22;9211;48.818;9.312;2022-11-20T11:25:20;8.00;99.90
18173;DHT22;9211;48.818;9.312;2022-11-20T11:27:49;8.00;99.90
18173;DHT22;9211;48.818;9.312;2022-11-20T11:30:18;8.00;99.90
18173;DHT22;9211;48.818;9.312;2022-11-20T11:32:45;8.10;99.90
18173;DHT22;9211;48.818;9.312;2022-11-20T11:35:23;8.10;99.90
18173;DHT22;9211;48.818;9.312;2022-11-20T11:37:51;8.20;99.90
18173;DHT22;9211;48.818;9.312;2022-11-20T11:40:21;8.30;99.90
18173;DHT22;9211;48.818;9.312;2022-11-20T11:42:53;8.30;99.90
18173;DHT22;9211;48.818;9.312;2022-11-20T11:45:21;8.40;99.90
18173;DHT22;9211;48.818;9.312;2022-11-20T11:47:48;8.40;99.90
18173;DHT22;9211;48.818;9.312;2022-11-20T11:50:18;8.40;99.90
18173;DHT22;9211;48.818;9.312;2022-11-20T11:52:55;8.50;99.90
18173;DHT22;9211;48.818;9.312;2022-11-20T11:55:29;8.50;99.90
18173;DHT22;9211;48.818;9.312;2022-11-20T11:58:11;8.50;99.90
18173;DHT22;9211;48.818;9.312;2022-11-20T12:00:48;8.60;99.90
18173;DHT22;9211;48.818;9.312;2022-11-20T12:03:20;8.60;99.90
18173;DHT22;9211;48.818;9.312;2022-11-20T12:05:53;8.60;99.90
18173;DHT22;9211;48.818;9.312;2022-11-20T12:08:27;8.60;99.90
18173;DHT22;9211;48.818;9.312;2022-11-20T12:10:59;8.70;99.90
18173;DHT22;9211;48.818;9.312;2022-11-20T12:13:44;8.80;99.90
18173;DHT22;9211;48.818;9.312;2022-11-20T12:16:18;8.90;99.90
18173;DHT22;9211;48.818;9.312;2022-11-20T12:18:48;9.00;99.90
18173;DHT22;9211;48.818;9.312;2022-11-20T12:21:20;9.00;99.90
18173;DHT22;9211;48.818;9.312;2022-11-20T12:24:02;9.10;99.90
18173;DHT22;9211;48.818;9.312;2022-11-20T12:26:45;9.10;99.90
18173;DHT22;9211;48.818;9.312;2022-11-20T12:29:21;9.10;99.90
18173;DHT22;9211;48.818;9.312;2022-11-20T12:32:04;9.10;99.90
18173;DHT22;9211;48.818;9.312;2022-11-20T12:34:44;9.20;99.90
18173;DHT22;9211;48.818;9.312;2022-11-20T12:37:24;9.10;99.90
18173;DHT22;9211;48.818;9.312;2022-11-20T12:40:02;9.10;99.90
18173;DHT22;9211;48.818;9.312;2022-11-20T12:42:50;9.10;99.90
18173;DHT22;9211;48.818;9.312;2022-11-20T12:46:01;9.00;99.90
18173;DHT22;9211;48.818;9.312;2022-11-20T12:51:47;8.90;99.90
18173;DHT22;9211;48.818;9.312;2022-11-20T12:54:43;8.90;99.90
18173;DHT22;9211;48.818;9.312;2022-11-20T12:57:21;8.90;99.90
18173;DHT22;9211;48.818;9.312;2022-11-20T13:00:01;8.80;99.90
18173;DHT22;9211;48.818;9.312;2022-11-20T13:02:36;8.80;99.90
18173;DHT22;9211;48.818;9.312;2022-11-20T13:05:17;8.80;99.90
18173;DHT22;9211;48.818;9.312;2022-11-20T13:07:46;8.80;99.90
18173;DHT22;9211;48.818;9.312;2022-11-20T13:10:23;8.80;99.90
18173;DHT22;9211;48.818;9.312;2022-11-20T13:12:58;8.80;99.90
18173;DHT22;9211;48.818;9.312;2022-11-20T13:15:36;8.90;99.90
18173;DHT22;9211;48.818;9.312;2022-11-20T13:18:09;8.90;99.90
18173;DHT22;9211;48.818;9.312;2022-11-20T13:20:41;9.00;99.90
18173;DHT22;9211;48.818;9.312;2022-11-20T13:23:09;9.00;99.90
18173;DHT22;9211;48.818;9.312;2022-11-20T13:25:37;9.00;99.90
18173;DHT22;9211;48.818;9.312;2022-11-20T13:28:26;9.00;99.90
18173;DHT22;9211;48.818;9.312;2022-11-20T13:30:55;9.00;99.90
18173;DHT22;9211;48.818;9.312;2022-11-20T13:33:25;9.00;99.90
18173;DHT22;9211;48.818;9.312;2022-11-20T13:35:58;9.00;99.90
18173;DHT22;9211;48.818;9.312;2022-11-20T13:38:26;9.10;99.90
18173;DHT22;9211;48.818;9.312;2022-11-20T13:40:55;9.10;99.90
18173;DHT22;9211;48.818;9.312;2022-11-20T13:43:28;9.10;99.90
18173;DHT22;9211;48.818;9.312;2022-11-20T13:46:02;9.20;99.90
18173;DHT22;9211;48.818;9.312;2022-11-20T13:48:31;9.20;99.90
18173;DHT22;9211;48.818;9.312;2022-11-20T13:51:06;9.20;99.90
18173;DHT22;9211;48.818;9.312;2022-11-20T13:53:56;9.20;99.90
18173;DHT22;9211;48.818;9.312;2022-11-20T13:56:34;9.20;99.90
18173;DHT22;9211;48.818;9.312;2022-11-20T13:59:09;9.30;99.90
18173;DHT22;9211;48.818;9.312;2022-11-20T14:01:43;9.30;99.90
18173;DHT22;9211;48.818;9.312;2022-11-20T14:04:14;9.30;99.90
18173;DHT22;9211;48.818;9.312;2022-11-20T14:06:43;9.30;99.90
18173;DHT22;9211;48.818;9.312;2022-11-20T14:09:12;9.40;99.90
18173;DHT22;9211;48.818;9.312;2022-11-20T14:11:46;9.40;99.90
18173;DHT22;9211;48.818;9.312;2022-11-20T14:14:17;9.40;99.90
18173;DHT22;9211;48.818;9.312;2022-11-20T14:16:45;9.40;99.90
18173;DHT22;9211;48.818;9.312;2022-11-20T14:19:26;9.40;99.90
18173;DHT22;9211;48.818;9.312;2022-11-20T14:22:06;9.50;99.90
18173;DHT22;9211;48.818;9.312;2022-11-20T14:24:33;9.50;99.90
18173;DHT22;9211;48.818;9.312;2022-11-20T14:27:00;9.50;99.90
18173;DHT22;9211;48.818;9.312;2022-11-20T14:29:34;9.40;99.90
18173;DHT22;9211;48.818;9.312;2022-11-20T14:32:02;9.30;99.90
18173;DHT22;9211;48.818;9.312;2022-11-20T14:34:31;9.20;99.90
18173;DHT22;9211;48.818;9.312;2022-11-20T14:37:01;9.10;99.90
18173;DHT22;9211;48.818;9.312;2022-11-20T14:39:31;9.00;99.90
18173;DHT22;9211;48.818;9.312;2022-11-20T14:41:59;8.90;99.90
18173;DHT22;9211;48.818;9.312;2022-11-20T14:44:30;8.90;99.90
18173;DHT22;9211;48.818;9.312;2022-11-20T14:46:59;8.80;99.90
18173;DHT22;9211;48.818;9.312;2022-11-20T14:49:29;8.80;99.90
18173;DHT22;9211;48.818;9.312;2022-11-20T14:52:00;8.70;99.90
18173;DHT22;9211;48.818;9.312;2022-11-20T14:54:27;8.70;99.90
18173;DHT22;9211;48.818;9.312;2022-11-20T14:56:57;8.70;99.90
18173;DHT22;9211;48.818;9.312;2022-11-20T14:59:25;8.70;99.90
18173;DHT22;9211;48.818;9.312;2022-11-20T15:02:01;8.70;99.90
18173;DHT22;9211;48.818;9.312;2022-11-20T15:04:29;8.70;99.90
18173;DHT22;9211;48.818;9.312;2022-11-20T15:06:58;8.60;99.90
18173;DHT22;9211;48.818;9.312;2022-11-20T15:09:25;8.60;99.90
18173;DHT22;9211;48.818;9.312;2022-11-20T15:11:55;8.60;99.90
18173;DHT22;9211;48.818;9.312;2022-11-20T15:14:23;8.50;99.90
18173;DHT22;9211;48.818;9.312;2022-11-20T15:16:53;8.50;99.90
18173;DHT22;9211;48.818;9.312;2022-11-20T15:19:24;8.50;99.90
18173;DHT22;9211;48.818;9.312;2022-11-20T15:21:52;8.40;99.90
18173;DHT22;9211;48.818;9.312;2022-11-20T15:24:19;8.40;99.90
18173;DHT22;9211;48.818;9.312;2022-11-20T15:26:46;8.30;99.90
18173;DHT22;9211;48.818;9.312;2022-11-20T15:29:15;8.30;99.90
18173;DHT22;9211;48.818;9.312;2022-11-20T15:31:44;8.20;99.90
18173;DHT22;9211;48.818;9.312;2022-11-20T15:34:12;8.20;99.90
18173;DHT22;9211;48.818;9.312;2022-11-20T15:36:41;8.20;99.90
18173;DHT22;9211;48.818;9.312;2022-11-20T15:39:09;8.10;99.90
18173;DHT22;9211;48.818;9.312;2022-11-20T15:41:37;8.10;99.90
18173;DHT22;9211;48.818;9.312;2022-11-20T15:44:05;8.10;99.90
18173;DHT22;9211;48.818;9.312;2022-11-20T15:46:35;8.10;99.90
18173;DHT22;9211;48.818;9.312;2022-11-20T15:49:04;8.00;99.90
18173;DHT22;9211;48.818;9.312;2022-11-20T15:51:34;8.00;99.90
18173;DHT22;9211;48.818;9.312;2022-11-20T15:54:10;8.00;99.90
18173;DHT22;9211;48.818;9.312;2022-11-20T15:56:37;7.90;99.90
18173;DHT22;9211;48.818;9.312;2022-11-20T15:59:04;7.90;99.90
18173;DHT22;9211;48.818;9.312;2022-11-20T16:01:31;7.80;99.90
18173;DHT22;9211;48.818;9.312;2022-11-20T16:03:59;7.80;99.90
18173;DHT22;9211;48.818;9.312;2022-11-20T16:06:26;7.80;99.90
18173;DHT22;9211;48.818;9.312;2022-11-20T16:08:53;7.80;99.90
18173;DHT22;9211;48.818;9.312;2022-11-20T16:11:21;7.70;99.90
18173;DHT22;9211;48.818;9.312;2022-11-20T16:13:48;7.80;99.90
18173;DHT22;9211;48.818;9.312;2022-11-20T16:16:34;7.70;99.90
18173;DHT22;9211;48.818;9.312;2022-11-20T16:19:02;7.70;99.90
18173;DHT22;9211;48.818;9.312;2022-11-20T16:21:29;7.70;99.90
18173;DHT22;9211;48.818;9.312;2022-11-20T16:23:57;7.70;99.90
18173;DHT22;9211;48.818;9.312;2022-11-20T16:26:26;7.70;99.90
18173;DHT22;9211;48.818;9.312;2022-11-20T16:28:53;7.70;99.90